sensor_id;sensor_type;location;lat;lon;timestamp;P1;durP1;ratioP1;P2;durP2;ratioP2
68680;SDS011;55836;49.858;6.756;2023-02-28T00:00:29;2.73;;;1.40;;
68680;SDS011;55836;49.858;6.756;2023-02-28T00:02:55;5.43;;;3.23;;
68680;SDS011;55836;49.858;6.756;2023-02-28T00:05:22;1.47;;;1.30;;
68680;SDS011;55836;49.858;6.756;2023-02-28T00:07:49;2.67;;;2.17;;
68680;SDS011;55836;49.858;6.756;2023-02-28T00:10:20;3.17;;;1.50;;
68680;SDS011;55836;49.858;6.756;2023-02-28T00:12:48;2.87;;;1.90;;
68680;SDS011;55836;49.858;6.756;2023-02-28T00:15:14;6.50;;;3.90;;
68680;SDS011;55836;49.858;6.756;2023-02-28T00:17:40;4.17;;;2.70;;
68680;SDS011;55836;49.858;6.756;2023-02-28T00:20:07;6.13;;;3.83;;
68680;SDS011;55836;49.858;6.756;2023-02-28T00:22:33;5.50;;;3.73;;
68680;SDS011;55836;49.858;6.756;2023-02-28T00:24:59;8.67;;;4.23;;
68680;SDS011;55836;49.858;6.756;2023-02-28T00:27:25;5.70;;;2.80;;
68680;SDS011;55836;49.858;6.756;2023-02-28T00:29:51;3.13;;;2.07;;
68680;SDS011;55836;49.858;6.756;2023-02-28T00:32:19;3.03;;;2.83;;
68680;SDS011;55836;49.858;6.756;2023-02-28T00:34:45;3.97;;;1.87;;
68680;SDS011;55836;49.858;6.756;2023-02-28T00:37:11;1.80;;;1.70;;
68680;SDS011;55836;49.858;6.756;2023-02-28T00:39:37;2.87;;;1.70;;
68680;SDS011;55836;49.858;6.756;2023-02-28T00:42:04;2.00;;;1.33;;
68680;SDS011;55836;49.858;6.756;2023-02-28T00:44:30;2.77;;;2.00;;
68680;SDS011;55836;49.858;6.756;2023-02-28T00:46:57;2.80;;;1.90;;
68680;SDS011;55836;49.858;6.756;2023-02-28T00:49:23;2.67;;;1.70;;
68680;SDS011;55836;49.858;6.756;2023-02-28T00:51:49;1.77;;;1.67;;
68680;SDS011;55836;49.858;6.756;2023-02-28T00:54:16;2.70;;;1.93;;
68680;SDS011;55836;49.858;6.756;2023-02-28T00:56:42;2.07;;;1.53;;
68680;SDS011;55836;49.858;6.756;2023-02-28T00:59:08;4.87;;;1.50;;
68680;SDS011;55836;49.858;6.756;2023-02-28T01:01:34;1.77;;;1.60;;
68680;SDS011;55836;49.858;6.756;2023-02-28T01:04:00;1.90;;;1.80;;
68680;SDS011;55836;49.858;6.756;2023-02-28T01:06:26;1.77;;;1.50;;
68680;SDS011;55836;49.858;6.756;2023-02-28T01:08:52;2.10;;;1.90;;
68680;SDS011;55836;49.858;6.756;2023-02-28T01:11:18;1.50;;;1.40;;
68680;SDS011;55836;49.858;6.756;2023-02-28T01:13:45;2.00;;;1.70;;
68680;SDS011;55836;49.858;6.756;2023-02-28T01:16:12;4.27;;;1.60;;
68680;SDS011;55836;49.858;6.756;2023-02-28T01:18:38;1.83;;;1.67;;
68680;SDS011;55836;49.858;6.756;2023-02-28T01:21:09;2.87;;;1.40;;
68680;SDS011;55836;49.858;6.756;2023-02-28T01:23:35;1.87;;;1.40;;
68680;SDS011;55836;49.858;6.756;2023-02-28T01:26:08;2.10;;;1.73;;
68680;SDS011;55836;49.858;6.756;2023-02-28T01:28:34;2.47;;;1.60;;
68680;SDS011;55836;49.858;6.756;2023-02-28T01:31:00;3.27;;;2.03;;
68680;SDS011;55836;49.858;6.756;2023-02-28T01:33:27;2.93;;;2.10;;
68680;SDS011;55836;49.858;6.756;2023-02-28T01:36:00;4.10;;;1.83;;
68680;SDS011;55836;49.858;6.756;2023-02-28T01:38:26;3.10;;;1.70;;
68680;SDS011;55836;49.858;6.756;2023-02-28T01:40:52;2.37;;;1.83;;
68680;SDS011;55836;49.858;6.756;2023-02-28T01:43:22;3.13;;;1.77;;
68680;SDS011;55836;49.858;6.756;2023-02-28T01:45:49;3.70;;;1.60;;
68680;SDS011;55836;49.858;6.756;2023-02-28T01:48:15;2.90;;;1.53;;
68680;SDS011;55836;49.858;6.756;2023-02-28T01:50:42;2.57;;;1.83;;
68680;SDS011;55836;49.858;6.756;2023-02-28T01:53:13;1.87;;;1.67;;
68680;SDS011;55836;49.858;6.756;2023-02-28T01:55:40;3.33;;;2.17;;
68680;SDS011;55836;49.858;6.756;2023-02-28T01:58:09;4.00;;;2.17;;
68680;SDS011;55836;49.858;6.756;2023-02-28T02:00:35;3.53;;;1.90;;
68680;SDS011;55836;49.858;6.756;2023-02-28T02:03:08;4.23;;;2.50;;
68680;SDS011;55836;49.858;6.756;2023-02-28T02:05:36;2.03;;;1.83;;
68680;SDS011;55836;49.858;6.756;2023-02-28T02:08:06;1.93;;;1.83;;
68680;SDS011;55836;49.858;6.756;2023-02-28T02:10:35;2.00;;;1.80;;
68680;SDS011;55836;49.858;6.756;2023-02-28T02:13:24;4.00;;;1.80;;
68680;SDS011;55836;49.858;6.756;2023-02-28T02:15:57;3.23;;;2.10;;
68680;SDS011;55836;49.858;6.756;2023-02-28T02:34:08;2.20;;;2.03;;
68680;SDS011;55836;49.858;6.756;2023-02-28T02:39:17;3.70;;;1.70;;
68680;SDS011;55836;49.858;6.756;2023-02-28T02:47:00;3.10;;;2.43;;
68680;SDS011;55836;49.858;6.756;2023-02-28T02:49:30;3.17;;;2.67;;
68680;SDS011;55836;49.858;6.756;2023-02-28T02:51:57;2.80;;;2.37;;
68680;SDS011;55836;49.858;6.756;2023-02-28T02:54:25;2.27;;;2.03;;
68680;SDS011;55836;49.858;6.756;2023-02-28T02:56:53;4.63;;;2.90;;
68680;SDS011;55836;49.858;6.756;2023-02-28T02:59:21;4.97;;;2.83;;
68680;SDS011;55836;49.858;6.756;2023-02-28T03:01:50;6.37;;;3.03;;
68680;SDS011;55836;49.858;6.756;2023-02-28T03:04:17;2.87;;;2.33;;
68680;SDS011;55836;49.858;6.756;2023-02-28T03:06:44;3.30;;;2.63;;
68680;SDS011;55836;49.858;6.756;2023-02-28T03:09:10;3.30;;;2.83;;
68680;SDS011;55836;49.858;6.756;2023-02-28T03:11:37;4.53;;;2.70;;
68680;SDS011;55836;49.858;6.756;2023-02-28T03:14:09;4.10;;;3.00;;
68680;SDS011;55836;49.858;6.756;2023-02-28T03:16:46;3.27;;;2.97;;
68680;SDS011;55836;49.858;6.756;2023-02-28T03:21:56;4.90;;;3.43;;
68680;SDS011;55836;49.858;6.756;2023-02-28T03:27:00;4.43;;;3.50;;
68680;SDS011;55836;49.858;6.756;2023-02-28T03:34:33;8.70;;;5.60;;
68680;SDS011;55836;49.858;6.756;2023-02-28T03:37:09;4.33;;;3.50;;
68680;SDS011;55836;49.858;6.756;2023-02-28T03:39:37;5.13;;;3.90;;
68680;SDS011;55836;49.858;6.756;2023-02-28T03:42:07;4.30;;;3.63;;
68680;SDS011;55836;49.858;6.756;2023-02-28T03:44:41;6.83;;;4.13;;
68680;SDS011;55836;49.858;6.756;2023-02-28T03:47:27;6.80;;;4.03;;
68680;SDS011;55836;49.858;6.756;2023-02-28T03:49:56;6.90;;;4.10;;
68680;SDS011;55836;49.858;6.756;2023-02-28T03:52:25;6.70;;;4.50;;
68680;SDS011;55836;49.858;6.756;2023-02-28T03:54:54;4.67;;;3.60;;
68680;SDS011;55836;49.858;6.756;2023-02-28T04:00:02;6.67;;;4.00;;
68680;SDS011;55836;49.858;6.756;2023-02-28T04:02:31;5.73;;;4.37;;
68680;SDS011;55836;49.858;6.756;2023-02-28T04:04:57;4.57;;;3.80;;
68680;SDS011;55836;49.858;6.756;2023-02-28T04:07:24;5.37;;;3.70;;
68680;SDS011;55836;49.858;6.756;2023-02-28T04:09:50;5.43;;;4.10;;
68680;SDS011;55836;49.858;6.756;2023-02-28T04:12:17;5.87;;;4.13;;
68680;SDS011;55836;49.858;6.756;2023-02-28T04:14:43;5.63;;;4.53;;
68680;SDS011;55836;49.858;6.756;2023-02-28T04:17:09;8.97;;;5.07;;
68680;SDS011;55836;49.858;6.756;2023-02-28T04:19:35;5.80;;;4.60;;
68680;SDS011;55836;49.858;6.756;2023-02-28T04:22:01;7.53;;;3.80;;
68680;SDS011;55836;49.858;6.756;2023-02-28T04:24:27;6.57;;;5.20;;
68680;SDS011;55836;49.858;6.756;2023-02-28T04:26:54;5.93;;;3.87;;
68680;SDS011;55836;49.858;6.756;2023-02-28T04:29:25;6.77;;;4.37;;
68680;SDS011;55836;49.858;6.756;2023-02-28T04:31:52;8.30;;;5.17;;
68680;SDS011;55836;49.858;6.756;2023-02-28T04:34:24;9.03;;;5.13;;
68680;SDS011;55836;49.858;6.756;2023-02-28T04:36:50;6.60;;;4.60;;
68680;SDS011;55836;49.858;6.756;2023-02-28T04:39:18;6.90;;;4.73;;
68680;SDS011;55836;49.858;6.756;2023-02-28T04:41:45;6.93;;;5.60;;
68680;SDS011;55836;49.858;6.756;2023-02-28T04:44:11;7.37;;;5.20;;
68680;SDS011;55836;49.858;6.756;2023-02-28T04:46:37;8.83;;;4.70;;
68680;SDS011;55836;49.858;6.756;2023-02-28T04:49:03;6.53;;;5.13;;
68680;SDS011;55836;49.858;6.756;2023-02-28T04:51:29;7.90;;;5.97;;
68680;SDS011;55836;49.858;6.756;2023-02-28T04:53:55;6.33;;;4.97;;
68680;SDS011;55836;49.858;6.756;2023-02-28T04:56:21;6.73;;;4.73;;
68680;SDS011;55836;49.858;6.756;2023-02-28T04:58:47;8.00;;;5.13;;
68680;SDS011;55836;49.858;6.756;2023-02-28T05:01:27;5.97;;;4.67;;
68680;SDS011;55836;49.858;6.756;2023-02-28T05:03:54;7.97;;;5.23;;
68680;SDS011;55836;49.858;6.756;2023-02-28T05:06:21;8.20;;;5.17;;
68680;SDS011;55836;49.858;6.756;2023-02-28T05:08:48;6.70;;;5.43;;
68680;SDS011;55836;49.858;6.756;2023-02-28T05:11:16;6.77;;;5.40;;
68680;SDS011;55836;49.858;6.756;2023-02-28T05:13:43;10.70;;;6.47;;
68680;SDS011;55836;49.858;6.756;2023-02-28T05:16:09;7.93;;;5.60;;
68680;SDS011;55836;49.858;6.756;2023-02-28T05:18:35;8.60;;;5.63;;
68680;SDS011;55836;49.858;6.756;2023-02-28T05:21:01;6.80;;;5.53;;
68680;SDS011;55836;49.858;6.756;2023-02-28T05:23:27;7.47;;;5.33;;
68680;SDS011;55836;49.858;6.756;2023-02-28T05:25:53;6.63;;;5.13;;
68680;SDS011;55836;49.858;6.756;2023-02-28T05:28:20;8.17;;;5.40;;
68680;SDS011;55836;49.858;6.756;2023-02-28T05:30:46;8.50;;;5.63;;
68680;SDS011;55836;49.858;6.756;2023-02-28T05:33:12;8.17;;;6.43;;
68680;SDS011;55836;49.858;6.756;2023-02-28T05:35:39;7.97;;;6.00;;
68680;SDS011;55836;49.858;6.756;2023-02-28T05:38:06;7.30;;;5.50;;
68680;SDS011;55836;49.858;6.756;2023-02-28T05:40:32;7.53;;;5.20;;
68680;SDS011;55836;49.858;6.756;2023-02-28T05:42:58;5.37;;;4.83;;
68680;SDS011;55836;49.858;6.756;2023-02-28T05:45:24;6.57;;;5.43;;
68680;SDS011;55836;49.858;6.756;2023-02-28T05:47:53;8.50;;;5.70;;
68680;SDS011;55836;49.858;6.756;2023-02-28T05:50:19;6.43;;;5.83;;
68680;SDS011;55836;49.858;6.756;2023-02-28T05:52:49;9.60;;;5.70;;
68680;SDS011;55836;49.858;6.756;2023-02-28T05:55:15;6.97;;;6.10;;
68680;SDS011;55836;49.858;6.756;2023-02-28T05:57:41;7.70;;;5.60;;
68680;SDS011;55836;49.858;6.756;2023-02-28T06:00:07;6.87;;;5.60;;
68680;SDS011;55836;49.858;6.756;2023-02-28T06:02:33;8.70;;;5.53;;
68680;SDS011;55836;49.858;6.756;2023-02-28T06:04:59;8.23;;;5.50;;
68680;SDS011;55836;49.858;6.756;2023-02-28T06:07:26;8.00;;;5.90;;
68680;SDS011;55836;49.858;6.756;2023-02-28T06:09:52;9.50;;;6.30;;
68680;SDS011;55836;49.858;6.756;2023-02-28T06:12:18;9.23;;;6.03;;
68680;SDS011;55836;49.858;6.756;2023-02-28T06:14:44;9.27;;;5.67;;
68680;SDS011;55836;49.858;6.756;2023-02-28T06:17:10;9.87;;;6.27;;
68680;SDS011;55836;49.858;6.756;2023-02-28T06:19:39;8.43;;;6.47;;
68680;SDS011;55836;49.858;6.756;2023-02-28T06:22:06;7.80;;;6.27;;
68680;SDS011;55836;49.858;6.756;2023-02-28T06:24:32;8.70;;;5.90;;
68680;SDS011;55836;49.858;6.756;2023-02-28T06:26:58;8.30;;;6.27;;
68680;SDS011;55836;49.858;6.756;2023-02-28T06:29:30;9.77;;;6.73;;
68680;SDS011;55836;49.858;6.756;2023-02-28T06:31:56;9.10;;;5.77;;
68680;SDS011;55836;49.858;6.756;2023-02-28T06:34:22;9.97;;;6.30;;
68680;SDS011;55836;49.858;6.756;2023-02-28T06:36:50;10.53;;;6.80;;
68680;SDS011;55836;49.858;6.756;2023-02-28T06:39:16;6.37;;;5.30;;
68680;SDS011;55836;49.858;6.756;2023-02-28T06:41:42;10.10;;;5.73;;
68680;SDS011;55836;49.858;6.756;2023-02-28T06:44:14;8.83;;;5.90;;
68680;SDS011;55836;49.858;6.756;2023-02-28T06:46:41;10.80;;;6.17;;
68680;SDS011;55836;49.858;6.756;2023-02-28T06:49:07;8.80;;;6.27;;
68680;SDS011;55836;49.858;6.756;2023-02-28T06:51:34;9.93;;;6.17;;
68680;SDS011;55836;49.858;6.756;2023-02-28T06:54:00;8.50;;;6.07;;
68680;SDS011;55836;49.858;6.756;2023-02-28T06:56:26;6.63;;;5.43;;
68680;SDS011;55836;49.858;6.756;2023-02-28T06:58:52;8.37;;;6.20;;
68680;SDS011;55836;49.858;6.756;2023-02-28T07:01:18;6.67;;;5.57;;
68680;SDS011;55836;49.858;6.756;2023-02-28T07:03:44;7.47;;;5.57;;
68680;SDS011;55836;49.858;6.756;2023-02-28T07:06:10;8.07;;;5.87;;
68680;SDS011;55836;49.858;6.756;2023-02-28T07:08:36;9.70;;;5.37;;
68680;SDS011;55836;49.858;6.756;2023-02-28T07:11:02;6.50;;;4.93;;
68680;SDS011;55836;49.858;6.756;2023-02-28T07:13:29;6.73;;;5.73;;
68680;SDS011;55836;49.858;6.756;2023-02-28T07:15:59;6.53;;;5.53;;
68680;SDS011;55836;49.858;6.756;2023-02-28T07:18:25;6.87;;;4.83;;
68680;SDS011;55836;49.858;6.756;2023-02-28T07:20:51;8.07;;;5.27;;
68680;SDS011;55836;49.858;6.756;2023-02-28T07:23:17;9.07;;;5.70;;
68680;SDS011;55836;49.858;6.756;2023-02-28T07:25:43;8.87;;;5.33;;
68680;SDS011;55836;49.858;6.756;2023-02-28T07:28:10;6.70;;;5.37;;
68680;SDS011;55836;49.858;6.756;2023-02-28T07:30:37;6.20;;;4.80;;
68680;SDS011;55836;49.858;6.756;2023-02-28T07:33:03;8.73;;;5.87;;
68680;SDS011;55836;49.858;6.756;2023-02-28T07:35:29;6.10;;;5.47;;
68680;SDS011;55836;49.858;6.756;2023-02-28T07:37:56;6.10;;;4.30;;
68680;SDS011;55836;49.858;6.756;2023-02-28T07:40:22;6.20;;;5.20;;
68680;SDS011;55836;49.858;6.756;2023-02-28T07:42:48;5.70;;;5.03;;
68680;SDS011;55836;49.858;6.756;2023-02-28T07:45:14;7.47;;;5.97;;
68680;SDS011;55836;49.858;6.756;2023-02-28T07:47:42;7.43;;;6.07;;
68680;SDS011;55836;49.858;6.756;2023-02-28T07:50:09;8.00;;;5.50;;
68680;SDS011;55836;49.858;6.756;2023-02-28T07:52:36;6.77;;;5.77;;
68680;SDS011;55836;49.858;6.756;2023-02-28T07:55:04;6.60;;;5.70;;
68680;SDS011;55836;49.858;6.756;2023-02-28T07:57:30;6.00;;;4.93;;
68680;SDS011;55836;49.858;6.756;2023-02-28T07:59:57;9.10;;;5.47;;
68680;SDS011;55836;49.858;6.756;2023-02-28T08:02:23;6.93;;;5.30;;
68680;SDS011;55836;49.858;6.756;2023-02-28T08:04:49;6.83;;;5.60;;
68680;SDS011;55836;49.858;6.756;2023-02-28T08:07:15;8.47;;;5.27;;
68680;SDS011;55836;49.858;6.756;2023-02-28T08:09:41;8.43;;;5.60;;
68680;SDS011;55836;49.858;6.756;2023-02-28T08:12:08;6.60;;;5.33;;
68680;SDS011;55836;49.858;6.756;2023-02-28T08:14:35;7.07;;;5.30;;
68680;SDS011;55836;49.858;6.756;2023-02-28T08:17:01;7.93;;;5.67;;
68680;SDS011;55836;49.858;6.756;2023-02-28T08:19:27;5.03;;;4.53;;
68680;SDS011;55836;49.858;6.756;2023-02-28T08:21:53;8.23;;;5.47;;
68680;SDS011;55836;49.858;6.756;2023-02-28T08:24:19;5.23;;;4.73;;
68680;SDS011;55836;49.858;6.756;2023-02-28T08:26:45;6.53;;;4.70;;
68680;SDS011;55836;49.858;6.756;2023-02-28T08:29:11;7.03;;;5.20;;
68680;SDS011;55836;49.858;6.756;2023-02-28T08:31:37;8.07;;;5.37;;
68680;SDS011;55836;49.858;6.756;2023-02-28T08:34:11;6.73;;;5.83;;
68680;SDS011;55836;49.858;6.756;2023-02-28T08:36:37;7.73;;;4.90;;
68680;SDS011;55836;49.858;6.756;2023-02-28T08:39:03;5.60;;;4.53;;
68680;SDS011;55836;49.858;6.756;2023-02-28T08:41:30;6.37;;;4.80;;
68680;SDS011;55836;49.858;6.756;2023-02-28T08:50:03;5.17;;;4.27;;
68680;SDS011;55836;49.858;6.756;2023-02-28T08:52:29;5.13;;;4.07;;
68680;SDS011;55836;49.858;6.756;2023-02-28T08:54:55;5.27;;;4.40;;
68680;SDS011;55836;49.858;6.756;2023-02-28T08:57:21;5.87;;;4.40;;
68680;SDS011;55836;49.858;6.756;2023-02-28T08:59:47;7.63;;;4.60;;
68680;SDS011;55836;49.858;6.756;2023-02-28T09:02:14;9.17;;;4.13;;
68680;SDS011;55836;49.858;6.756;2023-02-28T09:04:40;4.97;;;4.10;;
68680;SDS011;55836;49.858;6.756;2023-02-28T09:07:06;5.83;;;4.30;;
68680;SDS011;55836;49.858;6.756;2023-02-28T09:09:32;4.80;;;4.27;;
68680;SDS011;55836;49.858;6.756;2023-02-28T09:11:58;5.67;;;4.30;;
68680;SDS011;55836;49.858;6.756;2023-02-28T09:14:25;5.80;;;4.37;;
68680;SDS011;55836;49.858;6.756;2023-02-28T09:16:51;7.10;;;4.50;;
68680;SDS011;55836;49.858;6.756;2023-02-28T09:19:17;5.20;;;4.03;;
68680;SDS011;55836;49.858;6.756;2023-02-28T09:21:43;7.00;;;3.93;;
68680;SDS011;55836;49.858;6.756;2023-02-28T09:24:09;12.00;;;4.33;;
68680;SDS011;55836;49.858;6.756;2023-02-28T09:26:37;5.47;;;4.00;;
68680;SDS011;55836;49.858;6.756;2023-02-28T09:29:03;5.03;;;4.20;;
68680;SDS011;55836;49.858;6.756;2023-02-28T09:31:29;5.20;;;4.13;;
68680;SDS011;55836;49.858;6.756;2023-02-28T09:49:17;4.80;;;3.43;;
68680;SDS011;55836;49.858;6.756;2023-02-28T09:54:14;5.40;;;3.80;;
68680;SDS011;55836;49.858;6.756;2023-02-28T09:56:44;5.00;;;3.53;;
68680;SDS011;55836;49.858;6.756;2023-02-28T10:09:49;5.40;;;4.13;;
68680;SDS011;55836;49.858;6.756;2023-02-28T10:12:17;4.10;;;3.50;;
68680;SDS011;55836;49.858;6.756;2023-02-28T10:14:45;4.33;;;3.30;;
68680;SDS011;55836;49.858;6.756;2023-02-28T10:17:47;8.17;;;3.83;;
68680;SDS011;55836;49.858;6.756;2023-02-28T10:20:05;4.40;;;3.53;;
68680;SDS011;55836;49.858;6.756;2023-02-28T10:25:22;4.00;;;3.60;;
68680;SDS011;55836;49.858;6.756;2023-02-28T10:27:49;5.10;;;4.20;;
68680;SDS011;55836;49.858;6.756;2023-02-28T10:30:15;6.67;;;4.23;;
68680;SDS011;55836;49.858;6.756;2023-02-28T10:32:45;4.90;;;3.73;;
68680;SDS011;55836;49.858;6.756;2023-02-28T10:37:40;6.33;;;4.00;;
68680;SDS011;55836;49.858;6.756;2023-02-28T10:40:11;6.97;;;3.87;;
68680;SDS011;55836;49.858;6.756;2023-02-28T10:43:01;4.40;;;3.83;;
68680;SDS011;55836;49.858;6.756;2023-02-28T10:45:34;7.37;;;4.20;;
68680;SDS011;55836;49.858;6.756;2023-02-28T10:48:26;4.20;;;3.80;;
68680;SDS011;55836;49.858;6.756;2023-02-28T10:50:52;4.77;;;3.80;;
68680;SDS011;55836;49.858;6.756;2023-02-28T10:55:56;5.40;;;3.60;;
68680;SDS011;55836;49.858;6.756;2023-02-28T10:58:23;5.70;;;4.07;;
68680;SDS011;55836;49.858;6.756;2023-02-28T11:00:50;7.17;;;4.47;;
68680;SDS011;55836;49.858;6.756;2023-02-28T11:03:23;5.03;;;4.00;;
68680;SDS011;55836;49.858;6.756;2023-02-28T11:05:49;4.93;;;3.53;;
68680;SDS011;55836;49.858;6.756;2023-02-28T11:08:16;4.50;;;4.10;;
68680;SDS011;55836;49.858;6.756;2023-02-28T11:10:47;4.43;;;3.63;;
68680;SDS011;55836;49.858;6.756;2023-02-28T11:13:17;4.60;;;4.20;;
68680;SDS011;55836;49.858;6.756;2023-02-28T11:15:46;7.70;;;4.23;;
68680;SDS011;55836;49.858;6.756;2023-02-28T11:18:20;6.97;;;4.60;;
68680;SDS011;55836;49.858;6.756;2023-02-28T11:20:47;5.97;;;4.80;;
68680;SDS011;55836;49.858;6.756;2023-02-28T11:23:15;6.50;;;4.47;;
68680;SDS011;55836;49.858;6.756;2023-02-28T11:25:45;5.77;;;4.37;;
68680;SDS011;55836;49.858;6.756;2023-02-28T11:28:29;6.80;;;5.37;;
68680;SDS011;55836;49.858;6.756;2023-02-28T11:31:08;5.53;;;4.20;;
68680;SDS011;55836;49.858;6.756;2023-02-28T11:33:50;5.03;;;4.27;;
68680;SDS011;55836;49.858;6.756;2023-02-28T11:36:27;7.70;;;5.10;;
68680;SDS011;55836;49.858;6.756;2023-02-28T11:38:54;7.27;;;4.43;;
68680;SDS011;55836;49.858;6.756;2023-02-28T11:51:48;5.10;;;4.60;;
68680;SDS011;55836;49.858;6.756;2023-02-28T11:56:51;6.57;;;4.83;;
68680;SDS011;55836;49.858;6.756;2023-02-28T12:02:06;7.10;;;5.10;;
68680;SDS011;55836;49.858;6.756;2023-02-28T12:04:42;7.27;;;4.73;;
68680;SDS011;55836;49.858;6.756;2023-02-28T12:07:17;6.60;;;4.60;;
68680;SDS011;55836;49.858;6.756;2023-02-28T12:09:56;4.83;;;4.10;;
68680;SDS011;55836;49.858;6.756;2023-02-28T12:12:31;7.30;;;5.20;;
68680;SDS011;55836;49.858;6.756;2023-02-28T12:15:24;4.50;;;3.93;;
68680;SDS011;55836;49.858;6.756;2023-02-28T12:18:01;5.73;;;5.17;;
68680;SDS011;55836;49.858;6.756;2023-02-28T12:23:21;5.07;;;4.57;;
68680;SDS011;55836;49.858;6.756;2023-02-28T12:28:16;4.70;;;4.17;;
68680;SDS011;55836;49.858;6.756;2023-02-28T12:31:06;6.23;;;4.57;;
68680;SDS011;55836;49.858;6.756;2023-02-28T12:33:34;5.03;;;3.83;;
68680;SDS011;55836;49.858;6.756;2023-02-28T12:36:02;5.10;;;4.53;;
68680;SDS011;55836;49.858;6.756;2023-02-28T12:38:30;4.57;;;4.07;;
68680;SDS011;55836;49.858;6.756;2023-02-28T12:41:00;6.30;;;5.03;;
68680;SDS011;55836;49.858;6.756;2023-02-28T12:43:28;6.33;;;4.77;;
68680;SDS011;55836;49.858;6.756;2023-02-28T12:45:57;8.03;;;4.33;;
68680;SDS011;55836;49.858;6.756;2023-02-28T12:48:25;5.47;;;3.80;;
68680;SDS011;55836;49.858;6.756;2023-02-28T12:50:53;5.70;;;3.90;;
68680;SDS011;55836;49.858;6.756;2023-02-28T12:53:24;6.87;;;4.10;;
68680;SDS011;55836;49.858;6.756;2023-02-28T12:56:00;6.63;;;5.20;;
68680;SDS011;55836;49.858;6.756;2023-02-28T13:09:13;5.67;;;4.43;;
68680;SDS011;55836;49.858;6.756;2023-02-28T13:11:47;4.73;;;3.97;;
68680;SDS011;55836;49.858;6.756;2023-02-28T13:14:25;4.77;;;3.60;;
68680;SDS011;55836;49.858;6.756;2023-02-28T13:19:25;7.20;;;4.00;;
68680;SDS011;55836;49.858;6.756;2023-02-28T13:21:51;6.40;;;4.50;;
68680;SDS011;55836;49.858;6.756;2023-02-28T13:24:38;4.93;;;3.83;;
68680;SDS011;55836;49.858;6.756;2023-02-28T13:29:33;5.10;;;4.57;;
68680;SDS011;55836;49.858;6.756;2023-02-28T13:34:26;4.67;;;4.17;;
68680;SDS011;55836;49.858;6.756;2023-02-28T13:37:00;4.60;;;4.10;;
68680;SDS011;55836;49.858;6.756;2023-02-28T13:42:47;5.37;;;4.37;;
68680;SDS011;55836;49.858;6.756;2023-02-28T13:52:48;6.10;;;4.27;;
68680;SDS011;55836;49.858;6.756;2023-02-28T14:00:43;6.00;;;4.70;;
68680;SDS011;55836;49.858;6.756;2023-02-28T14:05:36;5.10;;;4.23;;
68680;SDS011;55836;49.858;6.756;2023-02-28T14:08:14;5.47;;;3.80;;
68680;SDS011;55836;49.858;6.756;2023-02-28T14:10:43;5.37;;;4.10;;
68680;SDS011;55836;49.858;6.756;2023-02-28T14:13:17;6.27;;;4.30;;
68680;SDS011;55836;49.858;6.756;2023-02-28T14:15:59;5.43;;;4.30;;
68680;SDS011;55836;49.858;6.756;2023-02-28T14:28:55;7.00;;;5.03;;
68680;SDS011;55836;49.858;6.756;2023-02-28T14:31:37;6.70;;;4.57;;
68680;SDS011;55836;49.858;6.756;2023-02-28T14:36:35;5.13;;;4.43;;
68680;SDS011;55836;49.858;6.756;2023-02-28T14:39:11;5.67;;;4.77;;
68680;SDS011;55836;49.858;6.756;2023-02-28T14:41:39;5.40;;;4.80;;
68680;SDS011;55836;49.858;6.756;2023-02-28T14:44:16;5.80;;;4.67;;
68680;SDS011;55836;49.858;6.756;2023-02-28T14:46:43;8.67;;;4.50;;
68680;SDS011;55836;49.858;6.756;2023-02-28T14:49:18;8.97;;;5.07;;
68680;SDS011;55836;49.858;6.756;2023-02-28T14:51:45;6.50;;;4.50;;
68680;SDS011;55836;49.858;6.756;2023-02-28T14:54:13;5.10;;;4.43;;
68680;SDS011;55836;49.858;6.756;2023-02-28T14:56:40;5.47;;;4.63;;
68680;SDS011;55836;49.858;6.756;2023-02-28T14:59:21;5.87;;;4.77;;
68680;SDS011;55836;49.858;6.756;2023-02-28T15:01:48;6.33;;;4.77;;
68680;SDS011;55836;49.858;6.756;2023-02-28T15:04:18;7.63;;;4.97;;
68680;SDS011;55836;49.858;6.756;2023-02-28T15:06:46;6.07;;;4.87;;
68680;SDS011;55836;49.858;6.756;2023-02-28T15:09:32;8.47;;;4.77;;
68680;SDS011;55836;49.858;6.756;2023-02-28T15:11:58;6.40;;;5.03;;
68680;SDS011;55836;49.858;6.756;2023-02-28T15:14:24;7.73;;;5.03;;
68680;SDS011;55836;49.858;6.756;2023-02-28T15:16:56;5.33;;;4.37;;
68680;SDS011;55836;49.858;6.756;2023-02-28T15:19:24;5.50;;;4.67;;
68680;SDS011;55836;49.858;6.756;2023-02-28T15:21:54;7.60;;;4.70;;
68680;SDS011;55836;49.858;6.756;2023-02-28T15:24:24;6.83;;;5.13;;
68680;SDS011;55836;49.858;6.756;2023-02-28T15:26:56;7.80;;;6.20;;
68680;SDS011;55836;49.858;6.756;2023-02-28T15:29:23;7.80;;;5.97;;
68680;SDS011;55836;49.858;6.756;2023-02-28T15:31:54;6.67;;;5.03;;
68680;SDS011;55836;49.858;6.756;2023-02-28T15:34:22;5.53;;;4.93;;
68680;SDS011;55836;49.858;6.756;2023-02-28T15:36:48;7.53;;;4.47;;
68680;SDS011;55836;49.858;6.756;2023-02-28T15:39:19;8.17;;;5.50;;
68680;SDS011;55836;49.858;6.756;2023-02-28T15:41:45;8.73;;;5.43;;
68680;SDS011;55836;49.858;6.756;2023-02-28T15:46:44;6.87;;;5.17;;
68680;SDS011;55836;49.858;6.756;2023-02-28T15:49:17;6.33;;;4.70;;
68680;SDS011;55836;49.858;6.756;2023-02-28T15:51:45;8.07;;;6.00;;
68680;SDS011;55836;49.858;6.756;2023-02-28T15:54:24;5.70;;;4.63;;
68680;SDS011;55836;49.858;6.756;2023-02-28T15:56:52;6.73;;;4.73;;
68680;SDS011;55836;49.858;6.756;2023-02-28T15:59:29;6.77;;;4.90;;
68680;SDS011;55836;49.858;6.756;2023-02-28T16:07:27;8.27;;;5.50;;
68680;SDS011;55836;49.858;6.756;2023-02-28T16:09:54;6.07;;;5.40;;
68680;SDS011;55836;49.858;6.756;2023-02-28T16:12:20;6.90;;;5.40;;
68680;SDS011;55836;49.858;6.756;2023-02-28T16:14:47;6.10;;;5.30;;
68680;SDS011;55836;49.858;6.756;2023-02-28T16:17:22;6.67;;;5.03;;
68680;SDS011;55836;49.858;6.756;2023-02-28T16:19:48;5.63;;;4.83;;
68680;SDS011;55836;49.858;6.756;2023-02-28T16:22:14;6.53;;;4.80;;
68680;SDS011;55836;49.858;6.756;2023-02-28T16:24:40;6.37;;;4.80;;
68680;SDS011;55836;49.858;6.756;2023-02-28T16:27:07;7.80;;;5.90;;
68680;SDS011;55836;49.858;6.756;2023-02-28T16:29:38;6.90;;;4.70;;
68680;SDS011;55836;49.858;6.756;2023-02-28T16:32:05;6.70;;;5.23;;
68680;SDS011;55836;49.858;6.756;2023-02-28T16:34:31;6.97;;;5.37;;
68680;SDS011;55836;49.858;6.756;2023-02-28T16:36:57;8.57;;;4.80;;
68680;SDS011;55836;49.858;6.756;2023-02-28T16:39:23;7.00;;;5.30;;
68680;SDS011;55836;49.858;6.756;2023-02-28T16:41:50;7.70;;;4.90;;
68680;SDS011;55836;49.858;6.756;2023-02-28T16:44:37;6.63;;;5.10;;
68680;SDS011;55836;49.858;6.756;2023-02-28T16:47:03;7.90;;;5.83;;
68680;SDS011;55836;49.858;6.756;2023-02-28T16:49:29;7.90;;;5.27;;
68680;SDS011;55836;49.858;6.756;2023-02-28T16:51:55;6.63;;;4.90;;
68680;SDS011;55836;49.858;6.756;2023-02-28T16:54:21;7.47;;;6.13;;
68680;SDS011;55836;49.858;6.756;2023-02-28T16:56:47;5.87;;;4.93;;
68680;SDS011;55836;49.858;6.756;2023-02-28T16:59:14;7.70;;;4.83;;
68680;SDS011;55836;49.858;6.756;2023-02-28T17:01:43;7.40;;;6.53;;
68680;SDS011;55836;49.858;6.756;2023-02-28T17:04:09;9.10;;;5.97;;
68680;SDS011;55836;49.858;6.756;2023-02-28T17:06:36;8.87;;;5.97;;
68680;SDS011;55836;49.858;6.756;2023-02-28T17:09:02;7.37;;;5.07;;
68680;SDS011;55836;49.858;6.756;2023-02-28T17:11:28;10.60;;;5.63;;
68680;SDS011;55836;49.858;6.756;2023-02-28T17:13:54;8.70;;;5.43;;
68680;SDS011;55836;49.858;6.756;2023-02-28T17:16:30;8.27;;;5.77;;
68680;SDS011;55836;49.858;6.756;2023-02-28T17:18:58;15.10;;;8.40;;
68680;SDS011;55836;49.858;6.756;2023-02-28T17:21:24;15.40;;;8.67;;
68680;SDS011;55836;49.858;6.756;2023-02-28T17:23:50;9.23;;;6.57;;
68680;SDS011;55836;49.858;6.756;2023-02-28T17:26:17;10.73;;;5.80;;
68680;SDS011;55836;49.858;6.756;2023-02-28T17:28:45;7.57;;;5.53;;
68680;SDS011;55836;49.858;6.756;2023-02-28T17:31:11;6.10;;;5.27;;
68680;SDS011;55836;49.858;6.756;2023-02-28T17:33:37;6.17;;;5.10;;